sensor_id;sensor_type;location;lat;lon;timestamp;temperature;humidity
12870;DHT22;6503;48.572;13.460;2022-09-30T00:00:57;9.60;99.90
12870;DHT22;6503;48.572;13.460;2022-09-30T00:03:25;9.60;99.90
12870;DHT22;6503;48.572;13.460;2022-09-30T00:05:56;9.60;99.90
12870;DHT22;6503;48.572;13.460;2022-09-30T00:08:24;9.70;99.90
12870;DHT22;6503;48.572;13.460;2022-09-30T00:10:59;9.70;99.90
12870;DHT22;6503;48.572;13.460;2022-09-30T00:13:27;9.70;99.90
12870;DHT22;6503;48.572;13.460;2022-09-30T00:15:54;9.80;99.90
12870;DHT22;6503;48.572;13.460;2022-09-30T00:18:21;9.80;99.90
12870;DHT22;6503;48.572;13.460;2022-09-30T00:20:49;9.90;99.90
12870;DHT22;6503;48.572;13.460;2022-09-30T00:23:17;9.90;99.90
12870;DHT22;6503;48.572;13.460;2022-09-30T00:25:45;9.90;99.90
12870;DHT22;6503;48.572;13.460;2022-09-30T00:28:12;10.00;99.90
12870;DHT22;6503;48.572;13.460;2022-09-30T00:30:40;10.00;99.90
12870;DHT22;6503;48.572;13.460;2022-09-30T00:33:07;10.00;99.90
12870;DHT22;6503;48.572;13.460;2022-09-30T00:35:35;10.00;99.90
12870;DHT22;6503;48.572;13.460;2022-09-30T00:38:04;9.90;99.90
12870;DHT22;6503;48.572;13.460;2022-09-30T00:40:32;9.90;99.90
12870;DHT22;6503;48.572;13.460;2022-09-30T00:43:02;10.00;99.90
12870;DHT22;6503;48.572;13.460;2022-09-30T00:45:31;10.00;99.90
12870;DHT22;6503;48.572;13.460;2022-09-30T00:48:05;10.00;99.90
12870;DHT22;6503;48.572;13.460;2022-09-30T00:50:36;10.00;99.90
12870;DHT22;6503;48.572;13.460;2022-09-30T00:53:15;10.00;99.90
12870;DHT22;6503;48.572;13.460;2022-09-30T00:55:50;10.00;99.90
12870;DHT22;6503;48.572;13.460;2022-09-30T00:58:24;9.90;99.90
12870;DHT22;6503;48.572;13.460;2022-09-30T01:00:54;9.80;99.90
12870;DHT22;6503;48.572;13.460;2022-09-30T01:03:22;9.70;99.90
12870;DHT22;6503;48.572;13.460;2022-09-30T01:05:50;9.70;99.90
12870;DHT22;6503;48.572;13.460;2022-09-30T01:08:20;9.80;99.90
12870;DHT22;6503;48.572;13.460;2022-09-30T01:10:48;9.80;99.90
12870;DHT22;6503;48.572;13.460;2022-09-30T01:13:17;9.90;99.90
12870;DHT22;6503;48.572;13.460;2022-09-30T01:16:14;10.00;99.90
12870;DHT22;6503;48.572;13.460;2022-09-30T01:18:54;10.00;99.90
12870;DHT22;6503;48.572;13.460;2022-09-30T01:21:51;9.90;99.90
12870;DHT22;6503;48.572;13.460;2022-09-30T01:24:39;9.80;99.90
12870;DHT22;6503;48.572;13.460;2022-09-30T01:27:33;9.90;99.90
12870;DHT22;6503;48.572;13.460;2022-09-30T01:30:14;9.90;99.90
12870;DHT22;6503;48.572;13.460;2022-09-30T01:33:03;9.90;99.90
12870;DHT22;6503;48.572;13.460;2022-09-30T01:35:49;9.90;99.90
12870;DHT22;6503;48.572;13.460;2022-09-30T01:38:25;9.90;99.90
12870;DHT22;6503;48.572;13.460;2022-09-30T01:41:01;9.90;99.90
12870;DHT22;6503;48.572;13.460;2022-09-30T01:43:37;9.90;99.90
12870;DHT22;6503;48.572;13.460;2022-09-30T01:46:17;9.80;99.90
12870;DHT22;6503;48.572;13.460;2022-09-30T01:48:52;9.80;99.90
12870;DHT22;6503;48.572;13.460;2022-09-30T01:51:28;9.90;99.90
12870;DHT22;6503;48.572;13.460;2022-09-30T01:53:59;10.00;99.90
12870;DHT22;6503;48.572;13.460;2022-09-30T01:56:33;10.10;99.90
12870;DHT22;6503;48.572;13.460;2022-09-30T01:59:05;10.20;99.90
12870;DHT22;6503;48.572;13.460;2022-09-30T02:01:37;10.10;99.90
12870;DHT22;6503;48.572;13.460;2022-09-30T02:04:06;10.10;99.90
12870;DHT22;6503;48.572;13.460;2022-09-30T02:06:39;10.00;99.90
12870;DHT22;6503;48.572;13.460;2022-09-30T02:09:10;9.80;99.90
12870;DHT22;6503;48.572;13.460;2022-09-30T02:11:41;9.80;99.90
12870;DHT22;6503;48.572;13.460;2022-09-30T02:14:12;9.90;99.90
12870;DHT22;6503;48.572;13.460;2022-09-30T02:16:46;10.00;99.90
12870;DHT22;6503;48.572;13.460;2022-09-30T02:19:18;10.00;99.90
12870;DHT22;6503;48.572;13.460;2022-09-30T02:21:53;10.00;99.90
12870;DHT22;6503;48.572;13.460;2022-09-30T02:24:26;9.90;99.90
12870;DHT22;6503;48.572;13.460;2022-09-30T02:26:58;9.90;99.90
12870;DHT22;6503;48.572;13.460;2022-09-30T02:29:31;9.90;99.90
12870;DHT22;6503;48.572;13.460;2022-09-30T02:32:07;9.80;99.90
12870;DHT22;6503;48.572;13.460;2022-09-30T02:34:40;9.90;99.90
12870;DHT22;6503;48.572;13.460;2022-09-30T02:37:13;10.00;99.90
12870;DHT22;6503;48.572;13.460;2022-09-30T02:39:46;10.00;99.90
12870;DHT22;6503;48.572;13.460;2022-09-30T02:42:20;9.90;99.90
12870;DHT22;6503;48.572;13.460;2022-09-30T02:44:48;9.90;99.90
12870;DHT22;6503;48.572;13.460;2022-09-30T02:47:25;9.90;99.90
12870;DHT22;6503;48.572;13.460;2022-09-30T02:50:01;9.90;99.90
12870;DHT22;6503;48.572;13.460;2022-09-30T02:52:41;9.80;99.90
12870;DHT22;6503;48.572;13.460;2022-09-30T02:55:16;9.80;99.90
12870;DHT22;6503;48.572;13.460;2022-09-30T02:57:54;9.80;99.90
12870;DHT22;6503;48.572;13.460;2022-09-30T03:00:42;9.80;99.90
12870;DHT22;6503;48.572;13.460;2022-09-30T03:03:15;9.80;99.90
12870;DHT22;6503;48.572;13.460;2022-09-30T03:05:45;9.80;99.90
12870;DHT22;6503;48.572;13.460;2022-09-30T03:08:15;9.70;99.90
12870;DHT22;6503;48.572;13.460;2022-09-30T03:10:42;9.70;99.90
12870;DHT22;6503;48.572;13.460;2022-09-30T03:13:20;9.70;99.90
12870;DHT22;6503;48.572;13.460;2022-09-30T03:16:05;9.70;99.90
12870;DHT22;6503;48.572;13.460;2022-09-30T03:18:44;9.80;99.90
12870;DHT22;6503;48.572;13.460;2022-09-30T03:21:25;9.80;99.90
12870;DHT22;6503;48.572;13.460;2022-09-30T03:24:07;9.80;99.90
12870;DHT22;6503;48.572;13.460;2022-09-30T03:26:39;9.80;99.90
12870;DHT22;6503;48.572;13.460;2022-09-30T03:29:17;9.80;99.90
12870;DHT22;6503;48.572;13.460;2022-09-30T03:31:56;9.80;99.90
12870;DHT22;6503;48.572;13.460;2022-09-30T03:34:29;9.80;99.90
12870;DHT22;6503;48.572;13.460;2022-09-30T03:37:11;9.80;99.90
12870;DHT22;6503;48.572;13.460;2022-09-30T03:39:52;9.70;99.90
12870;DHT22;6503;48.572;13.460;2022-09-30T03:42:23;9.70;99.90
12870;DHT22;6503;48.572;13.460;2022-09-30T03:45:00;9.70;99.90
12870;DHT22;6503;48.572;13.460;2022-09-30T03:47:30;9.80;99.90
12870;DHT22;6503;48.572;13.460;2022-09-30T03:50:02;9.80;99.90
12870;DHT22;6503;48.572;13.460;2022-09-30T03:52:32;9.80;99.90
12870;DHT22;6503;48.572;13.460;2022-09-30T03:55:04;9.90;99.90
12870;DHT22;6503;48.572;13.460;2022-09-30T03:57:32;9.90;99.90
12870;DHT22;6503;48.572;13.460;2022-09-30T03:59:59;9.80;99.90
12870;DHT22;6503;48.572;13.460;2022-09-30T04:02:26;9.80;99.90
12870;DHT22;6503;48.572;13.460;2022-09-30T04:04:55;9.80;99.90
12870;DHT22;6503;48.572;13.460;2022-09-30T04:07:22;9.80;99.90
12870;DHT22;6503;48.572;13.460;2022-09-30T04:09:51;9.80;99.90
12870;DHT22;6503;48.572;13.460;2022-09-30T04:12:21;9.70;99.90
12870;DHT22;6503;48.572;13.460;2022-09-30T04:14:50;9.80;99.90
12870;DHT22;6503;48.572;13.460;2022-09-30T04:17:17;9.90;99.90
12870;DHT22;6503;48.572;13.460;2022-09-30T04:19:44;9.90;99.90
12870;DHT22;6503;48.572;13.460;2022-09-30T04:22:12;10.00;99.90
12870;DHT22;6503;48.572;13.460;2022-09-30T04:24:39;10.00;99.90
12870;DHT22;6503;48.572;13.460;2022-09-30T04:27:07;10.00;99.90
12870;DHT22;6503;48.572;13.460;2022-09-30T04:29:34;10.00;99.90
12870;DHT22;6503;48.572;13.460;2022-09-30T04:32:01;10.00;99.90
12870;DHT22;6503;48.572;13.460;2022-09-30T04:34:28;10.00;99.90
12870;DHT22;6503;48.572;13.460;2022-09-30T04:36:57;10.00;99.90
12870;DHT22;6503;48.572;13.460;2022-09-30T04:39:24;10.00;99.90
12870;DHT22;6503;48.572;13.460;2022-09-30T04:42:02;10.10;99.90
12870;DHT22;6503;48.572;13.460;2022-09-30T04:44:37;10.10;99.90
12870;DHT22;6503;48.572;13.460;2022-09-30T04:47:10;10.20;99.90
12870;DHT22;6503;48.572;13.460;2022-09-30T04:49:37;10.10;99.90
12870;DHT22;6503;48.572;13.460;2022-09-30T04:52:05;10.10;99.90
12870;DHT22;6503;48.572;13.460;2022-09-30T04:54:32;10.20;99.90
12870;DHT22;6503;48.572;13.460;2022-09-30T04:57:01;10.20;99.90
12870;DHT22;6503;48.572;13.460;2022-09-30T04:59:28;10.20;99.90
12870;DHT22;6503;48.572;13.460;2022-09-30T05:01:57;10.20;99.90
12870;DHT22;6503;48.572;13.460;2022-09-30T05:04:30;10.30;99.90
12870;DHT22;6503;48.572;13.460;2022-09-30T05:06:58;10.20;99.90
12870;DHT22;6503;48.572;13.460;2022-09-30T05:09:33;10.10;99.90
12870;DHT22;6503;48.572;13.460;2022-09-30T05:12:09;10.10;99.90
12870;DHT22;6503;48.572;13.460;2022-09-30T05:14:42;10.00;99.90
12870;DHT22;6503;48.572;13.460;2022-09-30T05:17:11;10.10;99.90
12870;DHT22;6503;48.572;13.460;2022-09-30T05:19:45;10.10;99.90
12870;DHT22;6503;48.572;13.460;2022-09-30T05:22:18;10.20;99.90
12870;DHT22;6503;48.572;13.460;2022-09-30T05:24:50;10.20;99.90
12870;DHT22;6503;48.572;13.460;2022-09-30T05:27:32;10.20;99.90
12870;DHT22;6503;48.572;13.460;2022-09-30T05:30:02;10.20;99.90
12870;DHT22;6503;48.572;13.460;2022-09-30T05:32:30;10.20;99.90
12870;DHT22;6503;48.572;13.460;2022-09-30T05:34:59;10.20;99.90
12870;DHT22;6503;48.572;13.460;2022-09-30T05:37:28;10.30;99.90
12870;DHT22;6503;48.572;13.460;2022-09-30T05:39:59;10.30;99.90
12870;DHT22;6503;48.572;13.460;2022-09-30T05:42:30;10.30;99.90
12870;DHT22;6503;48.572;13.460;2022-09-30T05:45:03;10.20;99.90
12870;DHT22;6503;48.572;13.460;2022-09-30T05:47:35;10.10;99.90
12870;DHT22;6503;48.572;13.460;2022-09-30T05:50:15;10.20;99.90
12870;DHT22;6503;48.572;13.460;2022-09-30T05:52:43;10.20;99.90
12870;DHT22;6503;48.572;13.460;2022-09-30T05:55:10;10.20;99.90
12870;DHT22;6503;48.572;13.460;2022-09-30T05:57:36;10.10;99.90
12870;DHT22;6503;48.572;13.460;2022-09-30T06:00:05;10.10;99.90
12870;DHT22;6503;48.572;13.460;2022-09-30T06:06:48;10.00;99.90
12870;DHT22;6503;48.572;13.460;2022-09-30T06:09:15;9.90;99.90
12870;DHT22;6503;48.572;13.460;2022-09-30T06:18:15;10.00;99.90
12870;DHT22;6503;48.572;13.460;2022-09-30T06:20:42;10.20;99.90
12870;DHT22;6503;48.572;13.460;2022-09-30T06:26:47;10.00;99.90
12870;DHT22;6503;48.572;13.460;2022-09-30T06:29:15;10.10;99.90
12870;DHT22;6503;48.572;13.460;2022-09-30T06:31:44;10.10;99.90
12870;DHT22;6503;48.572;13.460;2022-09-30T06:34:36;10.10;99.90
12870;DHT22;6503;48.572;13.460;2022-09-30T06:44:02;10.10;99.90
12870;DHT22;6503;48.572;13.460;2022-09-30T06:46:29;10.20;99.90
12870;DHT22;6503;48.572;13.460;2022-09-30T06:48:58;10.20;99.90
12870;DHT22;6503;48.572;13.460;2022-09-30T06:51:25;10.30;99.90
12870;DHT22;6503;48.572;13.460;2022-09-30T06:53:54;10.40;99.90
12870;DHT22;6503;48.572;13.460;2022-09-30T06:56:21;10.50;99.90
12870;DHT22;6503;48.572;13.460;2022-09-30T06:58:51;10.60;99.90
12870;DHT22;6503;48.572;13.460;2022-09-30T07:01:19;10.70;99.90
12870;DHT22;6503;48.572;13.460;2022-09-30T07:03:49;10.70;99.90
12870;DHT22;6503;48.572;13.460;2022-09-30T07:06:23;10.70;99.90
12870;DHT22;6503;48.572;13.460;2022-09-30T07:08:50;10.70;99.90
12870;DHT22;6503;48.572;13.460;2022-09-30T07:11:19;10.60;99.90
12870;DHT22;6503;48.572;13.460;2022-09-30T07:13:49;10.50;99.90
12870;DHT22;6503;48.572;13.460;2022-09-30T07:16:17;10.60;99.90
12870;DHT22;6503;48.572;13.460;2022-09-30T07:18:47;10.60;99.90
12870;DHT22;6503;48.572;13.460;2022-09-30T07:24:45;10.80;99.90
12870;DHT22;6503;48.572;13.460;2022-09-30T07:30:41;10.90;99.90
12870;DHT22;6503;48.572;13.460;2022-09-30T07:33:08;11.00;99.90
12870;DHT22;6503;48.572;13.460;2022-09-30T07:35:38;11.00;99.90
12870;DHT22;6503;48.572;13.460;2022-09-30T07:38:06;11.10;99.90
12870;DHT22;6503;48.572;13.460;2022-09-30T07:40:59;11.10;99.90
12870;DHT22;6503;48.572;13.460;2022-09-30T07:46:52;11.20;99.90
12870;DHT22;6503;48.572;13.460;2022-09-30T07:49:21;11.20;99.90
12870;DHT22;6503;48.572;13.460;2022-09-30T07:51:54;11.30;99.90
12870;DHT22;6503;48.572;13.460;2022-09-30T07:54:26;11.30;99.90
12870;DHT22;6503;48.572;13.460;2022-09-30T08:00:12;11.40;99.90
12870;DHT22;6503;48.572;13.460;2022-09-30T08:02:40;11.50;99.90
12870;DHT22;6503;48.572;13.460;2022-09-30T08:05:11;11.60;99.90
12870;DHT22;6503;48.572;13.460;2022-09-30T08:07:42;11.70;99.90
12870;DHT22;6503;48.572;13.460;2022-09-30T08:10:10;11.70;99.90
12870;DHT22;6503;48.572;13.460;2022-09-30T08:12:39;11.70;99.90
12870;DHT22;6503;48.572;13.460;2022-09-30T08:15:09;11.70;99.90
12870;DHT22;6503;48.572;13.460;2022-09-30T08:17:37;11.70;99.90
12870;DHT22;6503;48.572;13.460;2022-09-30T08:20:25;11.80;99.90
12870;DHT22;6503;48.572;13.460;2022-09-30T08:23:08;11.90;99.90
12870;DHT22;6503;48.572;13.460;2022-09-30T08:25:35;12.00;99.90
12870;DHT22;6503;48.572;13.460;2022-09-30T08:28:02;12.00;99.90
12870;DHT22;6503;48.572;13.460;2022-09-30T08:31:12;11.90;99.90
12870;DHT22;6503;48.572;13.460;2022-09-30T08:33:42;12.00;99.90
12870;DHT22;6503;48.572;13.460;2022-09-30T08:36:13;12.00;99.90
12870;DHT22;6503;48.572;13.460;2022-09-30T08:38:41;12.10;99.90
12870;DHT22;6503;48.572;13.460;2022-09-30T08:41:19;12.10;99.90
12870;DHT22;6503;48.572;13.460;2022-09-30T08:43:58;12.10;99.90
12870;DHT22;6503;48.572;13.460;2022-09-30T08:46:38;12.20;99.90
12870;DHT22;6503;48.572;13.460;2022-09-30T08:49:23;12.20;99.90
12870;DHT22;6503;48.572;13.460;2022-09-30T08:51:54;12.30;99.90
12870;DHT22;6503;48.572;13.460;2022-09-30T08:54:24;12.50;99.90
12870;DHT22;6503;48.572;13.460;2022-09-30T08:56:57;12.80;99.90
12870;DHT22;6503;48.572;13.460;2022-09-30T08:59:29;13.10;99.90
12870;DHT22;6503;48.572;13.460;2022-09-30T09:02:08;13.30;99.90
12870;DHT22;6503;48.572;13.460;2022-09-30T09:04:39;13.60;99.90
12870;DHT22;6503;48.572;13.460;2022-09-30T09:07:36;13.80;99.90
12870;DHT22;6503;48.572;13.460;2022-09-30T09:10:21;14.00;99.90
12870;DHT22;6503;48.572;13.460;2022-09-30T09:12:55;14.00;99.90
12870;DHT22;6503;48.572;13.460;2022-09-30T09:15:32;14.00;99.90
12870;DHT22;6503;48.572;13.460;2022-09-30T09:21:12;13.90;99.90
12870;DHT22;6503;48.572;13.460;2022-09-30T09:23:57;14.00;99.90
12870;DHT22;6503;48.572;13.460;2022-09-30T09:26:29;13.90;99.90
12870;DHT22;6503;48.572;13.460;2022-09-30T09:29:14;14.10;99.90
12870;DHT22;6503;48.572;13.460;2022-09-30T09:31:53;14.20;99.90
12870;DHT22;6503;48.572;13.460;2022-09-30T09:34:32;14.20;99.90
12870;DHT22;6503;48.572;13.460;2022-09-30T09:37:14;14.40;99.90
12870;DHT22;6503;48.572;13.460;2022-09-30T09:39:55;14.60;99.90
12870;DHT22;6503;48.572;13.460;2022-09-30T09:42:38;14.60;99.90
12870;DHT22;6503;48.572;13.460;2022-09-30T09:45:14;14.50;99.90
12870;DHT22;6503;48.572;13.460;2022-09-30T09:47:49;14.40;99.90
12870;DHT22;6503;48.572;13.460;2022-09-30T09:50:30;14.30;99.90
12870;DHT22;6503;48.572;13.460;2022-09-30T09:53:10;14.20;99.90
12870;DHT22;6503;48.572;13.460;2022-09-30T09:55:44;14.30;99.90
12870;DHT22;6503;48.572;13.460;2022-09-30T09:58:13;14.30;99.90
12870;DHT22;6503;48.572;13.460;2022-09-30T10:00:43;14.30;99.90
12870;DHT22;6503;48.572;13.460;2022-09-30T10:03:28;14.30;99.90
12870;DHT22;6503;48.572;13.460;2022-09-30T10:06:04;14.30;99.90
12870;DHT22;6503;48.572;13.460;2022-09-30T10:08:35;14.20;99.90
12870;DHT22;6503;48.572;13.460;2022-09-30T10:11:20;14.00;99.90
12870;DHT22;6503;48.572;13.460;2022-09-30T10:13:48;14.00;99.90
12870;DHT22;6503;48.572;13.460;2022-09-30T10:16:31;13.90;99.90
12870;DHT22;6503;48.572;13.460;2022-09-30T10:19:00;13.80;99.90
12870;DHT22;6503;48.572;13.460;2022-09-30T10:21:32;13.80;99.90
12870;DHT22;6503;48.572;13.460;2022-09-30T10:24:25;13.70;99.90
12870;DHT22;6503;48.572;13.460;2022-09-30T10:26:54;13.50;99.90
12870;DHT22;6503;48.572;13.460;2022-09-30T10:29:30;13.50;99.90
12870;DHT22;6503;48.572;13.460;2022-09-30T10:32:03;13.50;99.90
12870;DHT22;6503;48.572;13.460;2022-09-30T10:34:34;13.50;99.90
12870;DHT22;6503;48.572;13.460;2022-09-30T10:37:12;13.60;99.90
12870;DHT22;6503;48.572;13.460;2022-09-30T10:39:43;13.60;99.90
12870;DHT22;6503;48.572;13.460;2022-09-30T10:42:19;13.50;99.90
12870;DHT22;6503;48.572;13.460;2022-09-30T10:44:51;13.50;99.90
12870;DHT22;6503;48.572;13.460;2022-09-30T10:47:22;13.50;99.90
12870;DHT22;6503;48.572;13.460;2022-09-30T10:49:59;13.50;99.90
12870;DHT22;6503;48.572;13.460;2022-09-30T10:52:54;13.50;99.90
12870;DHT22;6503;48.572;13.460;2022-09-30T10:55:55;13.60;99.90
12870;DHT22;6503;48.572;13.460;2022-09-30T10:58:42;13.60;99.90
12870;DHT22;6503;48.572;13.460;2022-09-30T11:04:41;13.80;99.90
12870;DHT22;6503;48.572;13.460;2022-09-30T11:11:08;14.00;99.90
12870;DHT22;6503;48.572;13.460;2022-09-30T11:14:04;13.90;99.90
12870;DHT22;6503;48.572;13.460;2022-09-30T11:17:26;14.00;99.90
12870;DHT22;6503;48.572;13.460;2022-09-30T11:20:05;14.00;99.90
12870;DHT22;6503;48.572;13.460;2022-09-30T11:22:58;14.00;99.90
12870;DHT22;6503;48.572;13.460;2022-09-30T11:26:02;13.90;99.90
12870;DHT22;6503;48.572;13.460;2022-09-30T11:28:51;13.70;99.90
12870;DHT22;6503;48.572;13.460;2022-09-30T11:31:29;13.60;99.90
12870;DHT22;6503;48.572;13.460;2022-09-30T11:34:19;13.50;99.90
12870;DHT22;6503;48.572;13.460;2022-09-30T11:36:54;13.60;99.90
12870;DHT22;6503;48.572;13.460;2022-09-30T11:39:43;13.60;99.90
12870;DHT22;6503;48.572;13.460;2022-09-30T11:42:33;13.70;99.90
12870;DHT22;6503;48.572;13.460;2022-09-30T11:45:27;13.80;99.90
12870;DHT22;6503;48.572;13.460;2022-09-30T11:48:17;13.90;99.90
12870;DHT22;6503;48.572;13.460;2022-09-30T11:50:57;13.90;99.90
12870;DHT22;6503;48.572;13.460;2022-09-30T11:53:36;13.90;99.90
12870;DHT22;6503;48.572;13.460;2022-09-30T11:56:25;13.80;99.90
12870;DHT22;6503;48.572;13.460;2022-09-30T11:58:58;13.80;99.90
12870;DHT22;6503;48.572;13.460;2022-09-30T12:01:29;13.90;99.90
12870;DHT22;6503;48.572;13.460;2022-09-30T12:03:58;14.00;99.90
12870;DHT22;6503;48.572;13.460;2022-09-30T12:06:31;14.20;99.90
12870;DHT22;6503;48.572;13.460;2022-09-30T12:09:04;14.20;99.90
12870;DHT22;6503;48.572;13.460;2022-09-30T12:11:36;14.10;99.90
12870;DHT22;6503;48.572;13.460;2022-09-30T12:14:13;14.10;99.90
12870;DHT22;6503;48.572;13.460;2022-09-30T12:16:45;14.10;99.90
12870;DHT22;6503;48.572;13.460;2022-09-30T12:19:15;14.20;99.90
12870;DHT22;6503;48.572;13.460;2022-09-30T12:21:50;14.30;99.90
12870;DHT22;6503;48.572;13.460;2022-09-30T12:24:24;14.40;99.90
12870;DHT22;6503;48.572;13.460;2022-09-30T12:26:57;14.40;99.90
12870;DHT22;6503;48.572;13.460;2022-09-30T12:29:28;14.40;99.90
12870;DHT22;6503;48.572;13.460;2022-09-30T12:32:44;14.40;99.90
12870;DHT22;6503;48.572;13.460;2022-09-30T12:35:38;14.40;99.90
12870;DHT22;6503;48.572;13.460;2022-09-30T12:38:23;14.40;99.90
12870;DHT22;6503;48.572;13.460;2022-09-30T12:41:09;14.50;99.90
12870;DHT22;6503;48.572;13.460;2022-09-30T12:46:57;14.60;99.90
12870;DHT22;6503;48.572;13.460;2022-09-30T12:49:27;14.60;99.90
12870;DHT22;6503;48.572;13.460;2022-09-30T12:51:57;14.60;99.90
12870;DHT22;6503;48.572;13.460;2022-09-30T12:54:27;14.60;99.90
12870;DHT22;6503;48.572;13.460;2022-09-30T12:56:58;14.60;99.90
12870;DHT22;6503;48.572;13.460;2022-09-30T12:59:29;14.60;99.90
12870;DHT22;6503;48.572;13.460;2022-09-30T13:02:00;14.60;99.90
12870;DHT22;6503;48.572;13.460;2022-09-30T13:04:33;14.60;99.90
12870;DHT22;6503;48.572;13.460;2022-09-30T13:07:21;14.50;99.90
12870;DHT22;6503;48.572;13.460;2022-09-30T13:10:24;14.60;99.90
12870;DHT22;6503;48.572;13.460;2022-09-30T13:13:15;14.60;99.90
12870;DHT22;6503;48.572;13.460;2022-09-30T13:16:08;14.50;99.90
12870;DHT22;6503;48.572;13.460;2022-09-30T13:19:03;14.40;99.90
12870;DHT22;6503;48.572;13.460;2022-09-30T13:21:41;14.40;99.90
12870;DHT22;6503;48.572;13.460;2022-09-30T13:27:52;14.30;99.90
12870;DHT22;6503;48.572;13.460;2022-09-30T13:30:39;14.40;99.90
12870;DHT22;6503;48.572;13.460;2022-09-30T13:33:39;14.40;99.90
12870;DHT22;6503;48.572;13.460;2022-09-30T13:39:46;14.40;99.90
12870;DHT22;6503;48.572;13.460;2022-09-30T13:42:20;14.30;99.90
12870;DHT22;6503;48.572;13.460;2022-09-30T13:45:01;14.30;99.90
12870;DHT22;6503;48.572;13.460;2022-09-30T13:47:36;14.30;99.90
12870;DHT22;6503;48.572;13.460;2022-09-30T13:50:17;14.40;99.90
12870;DHT22;6503;48.572;13.460;2022-09-30T13:52:55;14.30;99.90
12870;DHT22;6503;48.572;13.460;2022-09-30T13:55:41;14.30;99.90
12870;DHT22;6503;48.572;13.460;2022-09-30T13:58:37;14.30;99.90
12870;DHT22;6503;48.572;13.460;2022-09-30T14:01:17;14.30;99.90
12870;DHT22;6503;48.572;13.460;2022-09-30T14:04:16;14.20;99.90
12870;DHT22;6503;48.572;13.460;2022-09-30T14:07:31;14.20;99.90
12870;DHT22;6503;48.572;13.460;2022-09-30T14:10:59;14.20;99.90
12870;DHT22;6503;48.572;13.460;2022-09-30T14:13:53;14.20;99.90
12870;DHT22;6503;48.572;13.460;2022-09-30T14:16:44;14.20;99.90
12870;DHT22;6503;48.572;13.460;2022-09-30T14:22:17;14.00;99.90
12870;DHT22;6503;48.572;13.460;2022-09-30T14:24:45;14.00;99.90
12870;DHT22;6503;48.572;13.460;2022-09-30T14:27:30;14.00;99.90
12870;DHT22;6503;48.572;13.460;2022-09-30T14:30:04;13.90;99.90
12870;DHT22;6503;48.572;13.460;2022-09-30T14:32:35;13.90;99.90
12870;DHT22;6503;48.572;13.460;2022-09-30T14:35:06;13.90;99.90
12870;DHT22;6503;48.572;13.460;2022-09-30T14:37:44;13.90;99.90
12870;DHT22;6503;48.572;13.460;2022-09-30T14:40:16;13.90;99.90
12870;DHT22;6503;48.572;13.460;2022-09-30T14:42:45;14.00;99.90
12870;DHT22;6503;48.572;13.460;2022-09-30T14:45:18;14.00;99.90
12870;DHT22;6503;48.572;13.460;2022-09-30T14:47:49;14.00;99.90
12870;DHT22;6503;48.572;13.460;2022-09-30T14:50:20;14.10;99.90
12870;DHT22;6503;48.572;13.460;2022-09-30T14:52:49;14.10;99.90
12870;DHT22;6503;48.572;13.460;2022-09-30T14:55:26;14.00;99.90
12870;DHT22;6503;48.572;13.460;2022-09-30T14:58:17;14.00;99.90
12870;DHT22;6503;48.572;13.460;2022-09-30T15:00:48;14.00;99.90
12870;DHT22;6503;48.572;13.460;2022-09-30T15:03:15;14.00;99.90
12870;DHT22;6503;48.572;13.460;2022-09-30T15:05:42;14.00;99.90
12870;DHT22;6503;48.572;13.460;2022-09-30T15:08:10;14.00;99.90
12870;DHT22;6503;48.572;13.460;2022-09-30T15:10:45;14.00;99.90
12870;DHT22;6503;48.572;13.460;2022-09-30T15:13:14;14.00;99.90
12870;DHT22;6503;48.572;13.460;2022-09-30T15:15:43;14.10;99.90
12870;DHT22;6503;48.572;13.460;2022-09-30T15:18:31;14.10;99.90
12870;DHT22;6503;48.572;13.460;2022-09-30T15:21:03;14.10;99.90
12870;DHT22;6503;48.572;13.460;2022-09-30T15:23:35;14.20;99.90
12870;DHT22;6503;48.572;13.460;2022-09-30T15:26:03;14.20;99.90
12870;DHT22;6503;48.572;13.460;2022-09-30T15:28:33;14.20;99.90
12870;DHT22;6503;48.572;13.460;2022-09-30T15:31:04;14.20;99.90
12870;DHT22;6503;48.572;13.460;2022-09-30T15:33:38;14.20;99.90
12870;DHT22;6503;48.572;13.460;2022-09-30T15:36:06;14.20;99.90
12870;DHT22;6503;48.572;13.460;2022-09-30T15:38:38;14.30;99.90
12870;DHT22;6503;48.572;13.460;2022-09-30T15:41:08;14.30;99.90
12870;DHT22;6503;48.572;13.460;2022-09-30T15:43:39;14.20;99.90
12870;DHT22;6503;48.572;13.460;2022-09-30T15:46:25;14.20;99.90
12870;DHT22;6503;48.572;13.460;2022-09-30T15:48:55;14.10;99.90
12870;DHT22;6503;48.572;13.460;2022-09-30T15:51:28;14.10;99.90
12870;DHT22;6503;48.572;13.460;2022-09-30T15:53:55;14.10;99.90
12870;DHT22;6503;48.572;13.460;2022-09-30T15:56:30;14.00;99.90
12870;DHT22;6503;48.572;13.460;2022-09-30T15:59:01;13.90;99.90
12870;DHT22;6503;48.572;13.460;2022-09-30T16:01:34;13.90;99.90
12870;DHT22;6503;48.572;13.460;2022-09-30T16:04:29;13.90;99.90
12870;DHT22;6503;48.572;13.460;2022-09-30T16:07:09;13.80;99.90
12870;DHT22;6503;48.572;13.460;2022-09-30T16:10:07;13.80;99.90
12870;DHT22;6503;48.572;13.460;2022-09-30T16:12:43;13.80;99.90
12870;DHT22;6503;48.572;13.460;2022-09-30T16:21:57;13.70;99.90
12870;DHT22;6503;48.572;13.460;2022-09-30T16:24:44;13.70;99.90
12870;DHT22;6503;48.572;13.460;2022-09-30T16:27:28;13.70;99.90
12870;DHT22;6503;48.572;13.460;2022-09-30T16:29:56;13.60;99.90
12870;DHT22;6503;48.572;13.460;2022-09-30T16:32:24;13.50;99.90
12870;DHT22;6503;48.572;13.460;2022-09-30T16:34:52;13.50;99.90
12870;DHT22;6503;48.572;13.460;2022-09-30T16:37:20;13.40;99.90
12870;DHT22;6503;48.572;13.460;2022-09-30T16:39:48;13.40;99.90
12870;DHT22;6503;48.572;13.460;2022-09-30T16:42:16;13.40;99.90
12870;DHT22;6503;48.572;13.460;2022-09-30T16:44:44;13.50;99.90
12870;DHT22;6503;48.572;13.460;2022-09-30T16:47:13;13.50;99.90
12870;DHT22;6503;48.572;13.460;2022-09-30T16:49:41;13.40;99.90
12870;DHT22;6503;48.572;13.460;2022-09-30T16:52:09;13.40;99.90
12870;DHT22;6503;48.572;13.460;2022-09-30T16:54:41;13.30;99.90
12870;DHT22;6503;48.572;13.460;2022-09-30T16:57:12;13.20;99.90
12870;DHT22;6503;48.572;13.460;2022-09-30T16:59:39;13.20;99.90
12870;DHT22;6503;48.572;13.460;2022-09-30T17:02:12;13.20;99.90
12870;DHT22;6503;48.572;13.460;2022-09-30T17:04:39;13.10;99.90
12870;DHT22;6503;48.572;13.460;2022-09-30T17:07:10;13.00;99.90
12870;DHT22;6503;48.572;13.460;2022-09-30T17:09:41;13.00;99.90
12870;DHT22;6503;48.572;13.460;2022-09-30T17:12:09;13.00;99.90
12870;DHT22;6503;48.572;13.460;2022-09-30T17:14:37;13.00;99.90
12870;DHT22;6503;48.572;13.460;2022-09-30T17:17:05;13.00;99.90
12870;DHT22;6503;48.572;13.460;2022-09-30T17:19:32;13.00;99.90
12870;DHT22;6503;48.572;13.460;2022-09-30T17:22:01;13.00;99.90
12870;DHT22;6503;48.572;13.460;2022-09-30T17:24:29;12.90;99.90
12870;DHT22;6503;48.572;13.460;2022-09-30T17:26:59;12.80;99.90
12870;DHT22;6503;48.572;13.460;2022-09-30T17:29:26;12.80;99.90